Barlborough, United Kingdom
Current Conditions -  °F | °C
As of 2:20 PM on Thursday 27 Nov 2014 (Local Time) from EGCN Reporting Station
Moderate Fog Moderate Fog  
Wind Chill:   Ceiling: 100
Heat Index:   Visibility: 0.25mi
Dew Point:   Wind: 1mph
Humidity: 100%   Direction: NA
Pressure: 29.59"   Gusts: NA
Location:  53.29°N, 1.29°W
Report Text: EGCN 271420Z VRB01KT 0400 R20/0400 FG OVC001 09/09 Q1002
Loading
Personal Weather Stations






























Interactive Weather Map New forecast layout! Learn more

10-Day Weather Forecast

Advertisements
Track Severe Weather on mobile